sensor_id;sensor_type;location;lat;lon;timestamp;pressure;altitude;pressure_sealevel;temperature;humidity
7614;BME280;3848;42.016;23.098;2022-07-21T00:02:11;97370.84;;;20.85;85.41
7614;BME280;3848;42.016;23.098;2022-07-21T00:04:38;97367.59;;;20.80;87.18
7614;BME280;3848;42.016;23.098;2022-07-21T00:07:05;97371.66;;;20.66;86.63
7614;BME280;3848;42.016;23.098;2022-07-21T00:09:32;97361.72;;;20.57;88.47
7614;BME280;3848;42.016;23.098;2022-07-21T00:12:02;97364.44;;;20.54;90.14
7614;BME280;3848;42.016;23.098;2022-07-21T00:14:29;97332.84;;;20.29;91.04
7614;BME280;3848;42.016;23.098;2022-07-21T00:16:56;97368.00;;;20.31;91.52
7614;BME280;3848;42.016;23.098;2022-07-21T00:19:23;97364.72;;;20.28;91.17
7614;BME280;3848;42.016;23.098;2022-07-21T00:21:50;97369.34;;;20.20;91.67
7614;BME280;3848;42.016;23.098;2022-07-21T00:24:17;97366.75;;;20.20;90.74
7614;BME280;3848;42.016;23.098;2022-07-21T00:26:44;97360.59;;;20.03;92.11
7614;BME280;3848;42.016;23.098;2022-07-21T00:29:12;97345.69;;;19.90;93.48
7614;BME280;3848;42.016;23.098;2022-07-21T00:31:39;97356.59;;;19.96;95.46
7614;BME280;3848;42.016;23.098;2022-07-21T00:34:06;97356.47;;;19.99;94.98
7614;BME280;3848;42.016;23.098;2022-07-21T00:36:33;97352.94;;;20.02;95.30
7614;BME280;3848;42.016;23.098;2022-07-21T00:39:00;97342.53;;;20.03;94.30
7614;BME280;3848;42.016;23.098;2022-07-21T00:41:27;97356.16;;;20.07;94.18
7614;BME280;3848;42.016;23.098;2022-07-21T00:43:54;97312.66;;;19.77;94.58
7614;BME280;3848;42.016;23.098;2022-07-21T00:46:22;97356.84;;;19.90;93.94
7614;BME280;3848;42.016;23.098;2022-07-21T00:48:49;97352.66;;;19.88;93.71
7614;BME280;3848;42.016;23.098;2022-07-21T00:51:16;97353.09;;;19.77;95.67
7614;BME280;3848;42.016;23.098;2022-07-21T00:53:43;97352.38;;;19.73;95.98
7614;BME280;3848;42.016;23.098;2022-07-21T00:56:10;97356.69;;;19.73;96.24
7614;BME280;3848;42.016;23.098;2022-07-21T00:58:39;97347.97;;;19.55;96.25
7614;BME280;3848;42.016;23.098;2022-07-21T01:01:06;97339.25;;;19.36;98.45
7614;BME280;3848;42.016;23.098;2022-07-21T01:03:34;97361.97;;;19.48;99.15
7614;BME280;3848;42.016;23.098;2022-07-21T01:06:03;97356.75;;;19.49;98.69
7614;BME280;3848;42.016;23.098;2022-07-21T01:08:31;97356.94;;;19.45;99.72
7614;BME280;3848;42.016;23.098;2022-07-21T01:10:58;97357.78;;;19.45;99.21
7614;BME280;3848;42.016;23.098;2022-07-21T01:13:25;97357.03;;;19.43;99.80
7614;BME280;3848;42.016;23.098;2022-07-21T01:15:52;97351.28;;;19.37;100.00
7614;BME280;3848;42.016;23.098;2022-07-21T01:18:19;97362.38;;;19.39;100.00
7614;BME280;3848;42.016;23.098;2022-07-21T01:20:54;97366.91;;;19.32;100.00
7614;BME280;3848;42.016;23.098;2022-07-21T01:23:24;97365.22;;;19.31;100.00
7614;BME280;3848;42.016;23.098;2022-07-21T01:25:51;97357.50;;;19.31;100.00
7614;BME280;3848;42.016;23.098;2022-07-21T01:28:18;97345.81;;;19.23;100.00
7614;BME280;3848;42.016;23.098;2022-07-21T01:30:45;97365.72;;;19.19;100.00
7614;BME280;3848;42.016;23.098;2022-07-21T01:33:12;97368.22;;;19.21;100.00
7614;BME280;3848;42.016;23.098;2022-07-21T01:35:39;97372.75;;;19.14;100.00
7614;BME280;3848;42.016;23.098;2022-07-21T01:38:07;97373.00;;;19.08;100.00
7614;BME280;3848;42.016;23.098;2022-07-21T01:40:59;97373.97;;;19.05;100.00
7614;BME280;3848;42.016;23.098;2022-07-21T01:43:44;97370.53;;;19.05;100.00
7614;BME280;3848;42.016;23.098;2022-07-21T01:46:11;97370.53;;;19.05;100.00
7614;BME280;3848;42.016;23.098;2022-07-21T01:48:41;97374.97;;;19.01;100.00
7614;BME280;3848;42.016;23.098;2022-07-21T01:51:08;97365.84;;;18.93;100.00
7614;BME280;3848;42.016;23.098;2022-07-21T01:53:36;97372.00;;;18.88;100.00
7614;BME280;3848;42.016;23.098;2022-07-21T01:56:05;97369.72;;;18.81;100.00
7614;BME280;3848;42.016;23.098;2022-07-21T01:58:32;97367.41;;;18.73;100.00
7614;BME280;3848;42.016;23.098;2022-07-21T02:01:00;97361.03;;;18.60;100.00
7614;BME280;3848;42.016;23.098;2022-07-21T02:03:27;97371.31;;;18.60;100.00
7614;BME280;3848;42.016;23.098;2022-07-21T02:06:00;97357.63;;;18.59;100.00
7614;BME280;3848;42.016;23.098;2022-07-21T02:08:27;97366.09;;;18.63;100.00
7614;BME280;3848;42.016;23.098;2022-07-21T02:10:54;97371.97;;;18.67;100.00
7614;BME280;3848;42.016;23.098;2022-07-21T02:13:23;97361.78;;;18.64;100.00
7614;BME280;3848;42.016;23.098;2022-07-21T02:15:50;97373.13;;;18.58;100.00
7614;BME280;3848;42.016;23.098;2022-07-21T02:18:17;97375.34;;;18.44;100.00
7614;BME280;3848;42.016;23.098;2022-07-21T02:20:44;97376.28;;;18.41;100.00
7614;BME280;3848;42.016;23.098;2022-07-21T02:23:13;97373.81;;;18.38;100.00
7614;BME280;3848;42.016;23.098;2022-07-21T02:25:40;97378.91;;;18.40;100.00
7614;BME280;3848;42.016;23.098;2022-07-21T02:28:07;97375.22;;;18.47;100.00
7614;BME280;3848;42.016;23.098;2022-07-21T02:30:36;97372.75;;;18.44;100.00
7614;BME280;3848;42.016;23.098;2022-07-21T02:33:03;97376.75;;;18.27;100.00
7614;BME280;3848;42.016;23.098;2022-07-21T02:35:30;97373.47;;;18.24;100.00
7614;BME280;3848;42.016;23.098;2022-07-21T02:37:57;97381.97;;;18.26;100.00
7614;BME280;3848;42.016;23.098;2022-07-21T02:40:24;97385.31;;;18.28;100.00
7614;BME280;3848;42.016;23.098;2022-07-21T02:42:51;97390.50;;;18.26;100.00
7614;BME280;3848;42.016;23.098;2022-07-21T02:45:18;97393.25;;;18.22;100.00
7614;BME280;3848;42.016;23.098;2022-07-21T02:47:51;97373.03;;;18.11;100.00
7614;BME280;3848;42.016;23.098;2022-07-21T02:50:18;97373.25;;;18.05;100.00
7614;BME280;3848;42.016;23.098;2022-07-21T02:52:45;97387.84;;;18.05;100.00
7614;BME280;3848;42.016;23.098;2022-07-21T02:55:13;97394.59;;;18.07;100.00
7614;BME280;3848;42.016;23.098;2022-07-21T02:57:40;97391.50;;;17.97;100.00
7614;BME280;3848;42.016;23.098;2022-07-21T03:00:09;97387.09;;;18.01;100.00
7614;BME280;3848;42.016;23.098;2022-07-21T03:02:36;97392.94;;;18.06;100.00
7614;BME280;3848;42.016;23.098;2022-07-21T03:05:05;97388.50;;;18.10;100.00
7614;BME280;3848;42.016;23.098;2022-07-21T03:07:32;97379.13;;;18.09;100.00
7614;BME280;3848;42.016;23.098;2022-07-21T03:09:59;97389.13;;;18.18;100.00
7614;BME280;3848;42.016;23.098;2022-07-21T03:12:26;97376.72;;;18.04;100.00
7614;BME280;3848;42.016;23.098;2022-07-21T03:14:53;97396.16;;;18.13;100.00
7614;BME280;3848;42.016;23.098;2022-07-21T03:17:20;97379.56;;;17.96;100.00
7614;BME280;3848;42.016;23.098;2022-07-21T03:19:46;97398.19;;;18.03;100.00
7614;BME280;3848;42.016;23.098;2022-07-21T03:22:15;97396.34;;;18.07;100.00
7614;BME280;3848;42.016;23.098;2022-07-21T03:24:41;97404.78;;;18.10;100.00
7614;BME280;3848;42.016;23.098;2022-07-21T03:27:08;97394.47;;;18.12;100.00
7614;BME280;3848;42.016;23.098;2022-07-21T03:29:35;97393.72;;;18.08;100.00
7614;BME280;3848;42.016;23.098;2022-07-21T03:32:03;97395.72;;;18.00;100.00
7614;BME280;3848;42.016;23.098;2022-07-21T03:34:29;97395.81;;;17.97;100.00
7614;BME280;3848;42.016;23.098;2022-07-21T03:36:56;97395.25;;;17.87;100.00
7614;BME280;3848;42.016;23.098;2022-07-21T03:39:25;97373.50;;;17.73;100.00
7614;BME280;3848;42.016;23.098;2022-07-21T03:41:51;97399.94;;;17.76;100.00
7614;BME280;3848;42.016;23.098;2022-07-21T03:44:18;97403.25;;;17.80;100.00
7614;BME280;3848;42.016;23.098;2022-07-21T03:46:45;97402.19;;;17.85;100.00
7614;BME280;3848;42.016;23.098;2022-07-21T03:49:12;97401.19;;;17.91;100.00
7614;BME280;3848;42.016;23.098;2022-07-21T03:51:39;97400.06;;;17.98;100.00
7614;BME280;3848;42.016;23.098;2022-07-21T03:54:06;97404.47;;;17.94;100.00
7614;BME280;3848;42.016;23.098;2022-07-21T03:56:34;97407.16;;;17.91;100.00
7614;BME280;3848;42.016;23.098;2022-07-21T03:59:01;97413.31;;;17.86;100.00
7614;BME280;3848;42.016;23.098;2022-07-21T04:01:28;97393.84;;;17.79;100.00
7614;BME280;3848;42.016;23.098;2022-07-21T04:03:55;97417.34;;;17.94;100.00
7614;BME280;3848;42.016;23.098;2022-07-21T04:06:21;97413.75;;;17.98;100.00
7614;BME280;3848;42.016;23.098;2022-07-21T04:08:48;97417.34;;;17.94;100.00
7614;BME280;3848;42.016;23.098;2022-07-21T04:11:15;97417.47;;;17.90;100.00
7614;BME280;3848;42.016;23.098;2022-07-21T04:13:43;97426.00;;;17.90;100.00
7614;BME280;3848;42.016;23.098;2022-07-21T04:16:10;97419.34;;;17.85;100.00
7614;BME280;3848;42.016;23.098;2022-07-21T04:18:37;97408.28;;;17.83;100.00
7614;BME280;3848;42.016;23.098;2022-07-21T04:21:04;97425.00;;;17.96;100.00
7614;BME280;3848;42.016;23.098;2022-07-21T04:23:31;97424.78;;;18.02;100.00
7614;BME280;3848;42.016;23.098;2022-07-21T04:25:58;97422.09;;;18.05;100.00
7614;BME280;3848;42.016;23.098;2022-07-21T04:28:25;97428.75;;;18.12;100.00
7614;BME280;3848;42.016;23.098;2022-07-21T04:30:53;97425.41;;;18.09;100.00
7614;BME280;3848;42.016;23.098;2022-07-21T04:33:20;97418.81;;;18.02;100.00
7614;BME280;3848;42.016;23.098;2022-07-21T04:35:47;97422.38;;;17.97;100.00
7614;BME280;3848;42.016;23.098;2022-07-21T04:38:14;97412.47;;;17.85;100.00
7614;BME280;3848;42.016;23.098;2022-07-21T04:40:41;97419.16;;;17.91;100.00
7614;BME280;3848;42.016;23.098;2022-07-21T04:43:07;97409.91;;;17.85;100.00
7614;BME280;3848;42.016;23.098;2022-07-21T04:45:34;97414.88;;;17.91;100.00
7614;BME280;3848;42.016;23.098;2022-07-21T04:48:03;97417.63;;;17.85;100.00
7614;BME280;3848;42.016;23.098;2022-07-21T04:50:30;97413.53;;;17.80;100.00
7614;BME280;3848;42.016;23.098;2022-07-21T04:52:58;97416.97;;;17.79;100.00
7614;BME280;3848;42.016;23.098;2022-07-21T04:55:25;97418.47;;;17.86;100.00
7614;BME280;3848;42.016;23.098;2022-07-21T04:57:53;97413.16;;;17.90;100.00
7614;BME280;3848;42.016;23.098;2022-07-21T05:00:21;97422.91;;;18.07;100.00
7614;BME280;3848;42.016;23.098;2022-07-21T05:02:50;97414.00;;;18.17;100.00
7614;BME280;3848;42.016;23.098;2022-07-21T05:05:19;97427.31;;;18.28;100.00
7614;BME280;3848;42.016;23.098;2022-07-21T05:07:46;97425.53;;;18.31;100.00
7614;BME280;3848;42.016;23.098;2022-07-21T05:10:14;97424.63;;;18.32;100.00
7614;BME280;3848;42.016;23.098;2022-07-21T05:12:41;97417.69;;;18.35;100.00
7614;BME280;3848;42.016;23.098;2022-07-21T05:15:10;97430.16;;;18.46;100.00
7614;BME280;3848;42.016;23.098;2022-07-21T05:17:38;97422.28;;;18.50;100.00
7614;BME280;3848;42.016;23.098;2022-07-21T05:20:06;97411.13;;;18.50;100.00
7614;BME280;3848;42.016;23.098;2022-07-21T05:22:34;97422.72;;;18.63;100.00
7614;BME280;3848;42.016;23.098;2022-07-21T05:25:01;97422.50;;;18.69;100.00
7614;BME280;3848;42.016;23.098;2022-07-21T05:27:28;97409.50;;;18.72;100.00
7614;BME280;3848;42.016;23.098;2022-07-21T05:29:55;97426.03;;;18.90;100.00
7614;BME280;3848;42.016;23.098;2022-07-21T05:32:22;97419.59;;;19.02;100.00
7614;BME280;3848;42.016;23.098;2022-07-21T05:34:49;97428.59;;;19.13;100.00
7614;BME280;3848;42.016;23.098;2022-07-21T05:37:16;97416.50;;;19.15;100.00
7614;BME280;3848;42.016;23.098;2022-07-21T05:39:44;97426.16;;;19.32;100.00
7614;BME280;3848;42.016;23.098;2022-07-21T05:42:11;97426.31;;;19.51;100.00
7614;BME280;3848;42.016;23.098;2022-07-21T05:44:38;97426.06;;;19.59;100.00
7614;BME280;3848;42.016;23.098;2022-07-21T05:47:05;97413.69;;;19.67;100.00
7614;BME280;3848;42.016;23.098;2022-07-21T05:49:32;97417.41;;;19.82;100.00
7614;BME280;3848;42.016;23.098;2022-07-21T05:51:59;97409.34;;;19.89;100.00
7614;BME280;3848;42.016;23.098;2022-07-21T05:54:26;97415.00;;;19.97;100.00
7614;BME280;3848;42.016;23.098;2022-07-21T05:56:54;97416.25;;;20.09;100.00
7614;BME280;3848;42.016;23.098;2022-07-21T05:59:21;97415.69;;;20.23;100.00
7614;BME280;3848;42.016;23.098;2022-07-21T06:01:48;97412.59;;;20.35;100.00
7614;BME280;3848;42.016;23.098;2022-07-21T06:04:15;97407.97;;;20.43;100.00
7614;BME280;3848;42.016;23.098;2022-07-21T06:06:41;97382.94;;;20.45;100.00
7614;BME280;3848;42.016;23.098;2022-07-21T06:09:08;97408.31;;;20.75;100.00
7614;BME280;3848;42.016;23.098;2022-07-21T06:11:35;97400.34;;;20.79;96.83
7614;BME280;3848;42.016;23.098;2022-07-21T06:14:04;97406.28;;;21.00;95.92
7614;BME280;3848;42.016;23.098;2022-07-21T06:16:31;97408.41;;;21.11;93.88
7614;BME280;3848;42.016;23.098;2022-07-21T06:18:58;97359.22;;;20.93;92.26
7614;BME280;3848;42.016;23.098;2022-07-21T06:21:27;97399.00;;;21.28;91.60
7614;BME280;3848;42.016;23.098;2022-07-21T06:23:53;97398.47;;;21.39;90.47
7614;BME280;3848;42.016;23.098;2022-07-21T06:26:20;97389.41;;;21.49;89.79
7614;BME280;3848;42.016;23.098;2022-07-21T06:28:48;97401.13;;;21.56;88.00
7614;BME280;3848;42.016;23.098;2022-07-21T06:31:16;97387.75;;;21.66;85.48
7614;BME280;3848;42.016;23.098;2022-07-21T06:33:43;97390.88;;;21.72;86.35
7614;BME280;3848;42.016;23.098;2022-07-21T06:36:15;97379.91;;;21.84;82.76
7614;BME280;3848;42.016;23.098;2022-07-21T06:38:43;97390.34;;;21.83;81.54
7614;BME280;3848;42.016;23.098;2022-07-21T06:41:11;97377.25;;;21.86;81.26
7614;BME280;3848;42.016;23.098;2022-07-21T06:43:38;97379.31;;;21.97;81.64
7614;BME280;3848;42.016;23.098;2022-07-21T06:46:05;97366.78;;;22.06;81.36
7614;BME280;3848;42.016;23.098;2022-07-21T06:48:33;97370.81;;;22.29;81.46
7614;BME280;3848;42.016;23.098;2022-07-21T06:51:00;97349.78;;;22.35;77.44
7614;BME280;3848;42.016;23.098;2022-07-21T06:53:27;97372.72;;;22.59;72.97
7614;BME280;3848;42.016;23.098;2022-07-21T06:55:54;97366.06;;;22.70;74.58
7614;BME280;3848;42.016;23.098;2022-07-21T06:58:22;97372.38;;;22.82;75.57
7614;BME280;3848;42.016;23.098;2022-07-21T07:00:50;97364.38;;;23.02;69.87
7614;BME280;3848;42.016;23.098;2022-07-21T07:03:18;97358.75;;;23.10;68.32
7614;BME280;3848;42.016;23.098;2022-07-21T07:05:48;97346.41;;;23.15;69.98
7614;BME280;3848;42.016;23.098;2022-07-21T07:08:15;97353.91;;;23.35;69.79
7614;BME280;3848;42.016;23.098;2022-07-21T07:10:43;97341.06;;;23.48;66.37
7614;BME280;3848;42.016;23.098;2022-07-21T07:13:12;97341.25;;;23.61;64.38
7614;BME280;3848;42.016;23.098;2022-07-21T07:15:40;97332.28;;;23.66;62.69
7614;BME280;3848;42.016;23.098;2022-07-21T07:18:07;97340.47;;;23.75;61.38
7614;BME280;3848;42.016;23.098;2022-07-21T07:20:34;97334.81;;;23.82;61.50
7614;BME280;3848;42.016;23.098;2022-07-21T07:23:03;97330.66;;;23.94;63.53
7614;BME280;3848;42.016;23.098;2022-07-21T07:25:30;97320.78;;;24.00;62.51
7614;BME280;3848;42.016;23.098;2022-07-21T07:27:58;97324.25;;;24.29;61.43
7614;BME280;3848;42.016;23.098;2022-07-21T07:30:26;97321.88;;;24.41;61.36
7614;BME280;3848;42.016;23.098;2022-07-21T07:32:53;97314.78;;;24.57;61.01
7614;BME280;3848;42.016;23.098;2022-07-21T07:35:20;97320.25;;;24.67;57.75
7614;BME280;3848;42.016;23.098;2022-07-21T07:37:47;97318.13;;;24.73;56.90
7614;BME280;3848;42.016;23.098;2022-07-21T07:40:18;97299.81;;;24.75;58.10
7614;BME280;3848;42.016;23.098;2022-07-21T07:42:46;97298.78;;;24.91;57.83
7614;BME280;3848;42.016;23.098;2022-07-21T07:45:13;97295.44;;;25.04;56.56
7614;BME280;3848;42.016;23.098;2022-07-21T07:47:41;97296.88;;;25.22;60.57
7614;BME280;3848;42.016;23.098;2022-07-21T07:50:10;97294.19;;;25.36;56.01
7614;BME280;3848;42.016;23.098;2022-07-21T07:52:38;97293.81;;;25.42;54.65
7614;BME280;3848;42.016;23.098;2022-07-21T07:55:06;97292.78;;;25.58;54.63
7614;BME280;3848;42.016;23.098;2022-07-21T07:57:37;97268.03;;;25.65;54.11
7614;BME280;3848;42.016;23.098;2022-07-21T08:00:07;97282.56;;;25.94;55.41
7614;BME280;3848;42.016;23.098;2022-07-21T08:02:34;97279.75;;;26.10;53.85
7614;BME280;3848;42.016;23.098;2022-07-21T08:05:01;97268.19;;;26.14;52.62
7614;BME280;3848;42.016;23.098;2022-07-21T08:07:28;97272.88;;;26.34;52.40
7614;BME280;3848;42.016;23.098;2022-07-21T08:09:55;97245.25;;;26.45;51.03
7614;BME280;3848;42.016;23.098;2022-07-21T08:12:22;97269.81;;;26.66;52.87
7614;BME280;3848;42.016;23.098;2022-07-21T08:14:52;97254.41;;;26.87;50.38
7614;BME280;3848;42.016;23.098;2022-07-21T08:17:19;97248.97;;;26.90;52.07
7614;BME280;3848;42.016;23.098;2022-07-21T08:19:46;97249.22;;;26.87;52.22
7614;BME280;3848;42.016;23.098;2022-07-21T08:22:13;97237.13;;;27.10;51.69
7614;BME280;3848;42.016;23.098;2022-07-21T08:24:39;97232.00;;;27.32;49.25
7614;BME280;3848;42.016;23.098;2022-07-21T08:27:06;97230.28;;;27.20;48.24
7614;BME280;3848;42.016;23.098;2022-07-21T08:29:34;97228.94;;;27.38;48.03
7614;BME280;3848;42.016;23.098;2022-07-21T08:32:03;97221.97;;;27.50;49.04
7614;BME280;3848;42.016;23.098;2022-07-21T08:34:30;97226.44;;;27.72;48.98
7614;BME280;3848;42.016;23.098;2022-07-21T08:36:57;97208.22;;;27.59;47.11
7614;BME280;3848;42.016;23.098;2022-07-21T08:39:24;97209.47;;;27.88;47.93
7614;BME280;3848;42.016;23.098;2022-07-21T08:41:51;97210.53;;;28.08;47.17
7614;BME280;3848;42.016;23.098;2022-07-21T08:44:20;97199.84;;;28.22;46.28
7614;BME280;3848;42.016;23.098;2022-07-21T08:46:49;97193.78;;;28.44;47.00
7614;BME280;3848;42.016;23.098;2022-07-21T08:49:19;97196.56;;;28.86;47.20
7614;BME280;3848;42.016;23.098;2022-07-21T08:51:47;97187.94;;;29.06;44.85
7614;BME280;3848;42.016;23.098;2022-07-21T08:54:14;97199.25;;;29.28;44.89
7614;BME280;3848;42.016;23.098;2022-07-21T08:56:41;97188.50;;;29.63;46.78
7614;BME280;3848;42.016;23.098;2022-07-21T08:59:08;97185.47;;;29.88;42.59
7614;BME280;3848;42.016;23.098;2022-07-21T09:01:35;97170.91;;;29.74;43.01
7614;BME280;3848;42.016;23.098;2022-07-21T09:04:22;97174.00;;;29.89;43.10
7614;BME280;3848;42.016;23.098;2022-07-21T09:06:52;97169.47;;;29.91;42.10
7614;BME280;3848;42.016;23.098;2022-07-21T09:09:20;97161.22;;;30.26;42.95
7614;BME280;3848;42.016;23.098;2022-07-21T09:11:47;97156.56;;;30.49;42.70
7614;BME280;3848;42.016;23.098;2022-07-21T09:14:15;97142.00;;;31.05;44.54
7614;BME280;3848;42.016;23.098;2022-07-21T09:16:45;97144.41;;;31.54;42.62
7614;BME280;3848;42.016;23.098;2022-07-21T09:19:18;97133.31;;;31.70;40.49
7614;BME280;3848;42.016;23.098;2022-07-21T09:21:48;97132.19;;;32.10;39.99
7614;BME280;3848;42.016;23.098;2022-07-21T09:24:18;97132.97;;;32.48;38.64
7614;BME280;3848;42.016;23.098;2022-07-21T09:27:04;97123.88;;;32.78;40.48
7614;BME280;3848;42.016;23.098;2022-07-21T09:29:37;97112.53;;;33.13;37.78
7614;BME280;3848;42.016;23.098;2022-07-21T09:32:23;97110.59;;;33.23;37.45
7614;BME280;3848;42.016;23.098;2022-07-21T09:34:52;97110.59;;;33.41;36.84
7614;BME280;3848;42.016;23.098;2022-07-21T09:37:21;97109.31;;;33.79;38.65
7614;BME280;3848;42.016;23.098;2022-07-21T09:39:50;97105.34;;;33.75;36.15
7614;BME280;3848;42.016;23.098;2022-07-21T09:42:21;97108.34;;;33.80;36.77
7614;BME280;3848;42.016;23.098;2022-07-21T09:44:51;97109.94;;;33.99;37.26
7614;BME280;3848;42.016;23.098;2022-07-21T09:47:21;97094.50;;;34.20;34.54
7614;BME280;3848;42.016;23.098;2022-07-21T09:49:48;97077.19;;;34.25;34.84
7614;BME280;3848;42.016;23.098;2022-07-21T09:52:26;97101.03;;;34.42;34.70
7614;BME280;3848;42.016;23.098;2022-07-21T09:54:55;97097.59;;;34.66;34.34
7614;BME280;3848;42.016;23.098;2022-07-21T09:57:23;97082.03;;;34.46;33.12
7614;BME280;3848;42.016;23.098;2022-07-21T09:59:50;97089.00;;;34.72;33.90
7614;BME280;3848;42.016;23.098;2022-07-21T10:02:20;97081.09;;;35.04;34.04
7614;BME280;3848;42.016;23.098;2022-07-21T10:04:51;97070.66;;;35.43;32.79
7614;BME280;3848;42.016;23.098;2022-07-21T10:07:23;97064.41;;;35.75;32.77
7614;BME280;3848;42.016;23.098;2022-07-21T10:09:49;97063.97;;;36.11;32.15
7614;BME280;3848;42.016;23.098;2022-07-21T10:12:17;97061.00;;;36.37;31.47
7614;BME280;3848;42.016;23.098;2022-07-21T10:14:44;97060.72;;;36.55;30.60
7614;BME280;3848;42.016;23.098;2022-07-21T10:17:12;97063.63;;;36.68;31.30
7614;BME280;3848;42.016;23.098;2022-07-21T10:19:45;97057.41;;;36.76;29.86
7614;BME280;3848;42.016;23.098;2022-07-21T10:22:20;97057.19;;;36.85;30.75
7614;BME280;3848;42.016;23.098;2022-07-21T10:24:52;97049.84;;;37.10;29.58
7614;BME280;3848;42.016;23.098;2022-07-21T10:27:19;97053.34;;;37.26;28.80
7614;BME280;3848;42.016;23.098;2022-07-21T10:29:55;97047.94;;;37.19;29.80
7614;BME280;3848;42.016;23.098;2022-07-21T10:32:24;97008.44;;;37.24;29.40
7614;BME280;3848;42.016;23.098;2022-07-21T10:34:52;97039.75;;;37.43;30.65
7614;BME280;3848;42.016;23.098;2022-07-21T10:37:47;97032.97;;;37.56;28.93
7614;BME280;3848;42.016;23.098;2022-07-21T10:40:38;97030.66;;;37.67;29.69
7614;BME280;3848;42.016;23.098;2022-07-21T10:43:40;97020.97;;;37.89;29.63
7614;BME280;3848;42.016;23.098;2022-07-21T10:46:35;97026.38;;;38.32;28.00
7614;BME280;3848;42.016;23.098;2022-07-21T10:49:06;97007.03;;;38.38;28.68
7614;BME280;3848;42.016;23.098;2022-07-21T10:51:35;97013.97;;;38.82;28.69
7614;BME280;3848;42.016;23.098;2022-07-21T10:57:28;97001.78;;;39.22;27.18
7614;BME280;3848;42.016;23.098;2022-07-21T11:00:18;96998.22;;;39.08;27.60
7614;BME280;3848;42.016;23.098;2022-07-21T11:02:46;96998.34;;;39.28;28.85
7614;BME280;3848;42.016;23.098;2022-07-21T11:05:14;96991.66;;;39.45;26.14
7614;BME280;3848;42.016;23.098;2022-07-21T11:08:17;96986.28;;;39.73;27.58
7614;BME280;3848;42.016;23.098;2022-07-21T11:10:48;96988.06;;;40.01;26.74
7614;BME280;3848;42.016;23.098;2022-07-21T11:13:17;96997.47;;;40.10;26.18
7614;BME280;3848;42.016;23.098;2022-07-21T11:16:02;96987.97;;;39.81;26.84
7614;BME280;3848;42.016;23.098;2022-07-21T11:18:30;96981.63;;;39.82;26.81
7614;BME280;3848;42.016;23.098;2022-07-21T11:21:05;96984.78;;;39.99;26.77
7614;BME280;3848;42.016;23.098;2022-07-21T11:23:43;96979.88;;;40.09;26.95
7614;BME280;3848;42.016;23.098;2022-07-21T11:26:11;96978.44;;;40.13;26.24
7614;BME280;3848;42.016;23.098;2022-07-21T11:28:40;96978.78;;;39.97;25.88
7614;BME280;3848;42.016;23.098;2022-07-21T11:31:13;96986.13;;;39.94;27.40
7614;BME280;3848;42.016;23.098;2022-07-21T11:33:43;96979.84;;;40.02;26.62
7614;BME280;3848;42.016;23.098;2022-07-21T11:36:22;96981.91;;;40.07;26.16
7614;BME280;3848;42.016;23.098;2022-07-21T11:39:00;96972.09;;;40.27;26.25
7614;BME280;3848;42.016;23.098;2022-07-21T11:41:28;96960.63;;;40.27;26.86
7614;BME280;3848;42.016;23.098;2022-07-21T11:43:56;96951.63;;;40.28;26.30
7614;BME280;3848;42.016;23.098;2022-07-21T11:46:24;96954.50;;;40.19;26.88
7614;BME280;3848;42.016;23.098;2022-07-21T11:49:21;96955.28;;;40.33;27.35
7614;BME280;3848;42.016;23.098;2022-07-21T11:51:52;96961.69;;;40.39;26.81
7614;BME280;3848;42.016;23.098;2022-07-21T11:54:24;96956.34;;;40.72;26.60
7614;BME280;3848;42.016;23.098;2022-07-21T11:56:52;96950.59;;;40.75;26.38
7614;BME280;3848;42.016;23.098;2022-07-21T11:59:21;96947.56;;;40.85;25.63
7614;BME280;3848;42.016;23.098;2022-07-21T12:01:56;96951.38;;;41.15;25.92
7614;BME280;3848;42.016;23.098;2022-07-21T12:04:27;96957.97;;;40.99;24.66
7614;BME280;3848;42.016;23.098;2022-07-21T12:06:54;96959.47;;;40.82;24.70
7614;BME280;3848;42.016;23.098;2022-07-21T12:09:22;96947.56;;;40.45;24.99
7614;BME280;3848;42.016;23.098;2022-07-21T12:11:50;96955.75;;;40.70;25.67
7614;BME280;3848;42.016;23.098;2022-07-21T12:14:17;96942.81;;;40.73;25.25
7614;BME280;3848;42.016;23.098;2022-07-21T12:16:49;96936.06;;;40.84;25.17
7614;BME280;3848;42.016;23.098;2022-07-21T12:19:20;96941.34;;;40.97;25.46
7614;BME280;3848;42.016;23.098;2022-07-21T12:21:49;96935.97;;;41.30;24.46
7614;BME280;3848;42.016;23.098;2022-07-21T12:24:17;96926.97;;;41.11;25.09
7614;BME280;3848;42.016;23.098;2022-07-21T12:26:44;96935.56;;;41.13;25.59
7614;BME280;3848;42.016;23.098;2022-07-21T12:29:24;96933.97;;;40.99;25.15
7614;BME280;3848;42.016;23.098;2022-07-21T12:31:53;96910.63;;;40.88;25.54
7614;BME280;3848;42.016;23.098;2022-07-21T12:34:20;96923.72;;;40.96;25.50
7614;BME280;3848;42.016;23.098;2022-07-21T12:36:48;96926.41;;;40.90;25.36
7614;BME280;3848;42.016;23.098;2022-07-21T12:39:17;96911.63;;;40.80;25.77
7614;BME280;3848;42.016;23.098;2022-07-21T12:41:58;96910.16;;;40.98;25.08
7614;BME280;3848;42.016;23.098;2022-07-21T12:44:25;96920.88;;;40.91;25.80
7614;BME280;3848;42.016;23.098;2022-07-21T12:46:53;96924.97;;;40.74;25.43
7614;BME280;3848;42.016;23.098;2022-07-21T12:49:20;96912.84;;;40.78;24.48
7614;BME280;3848;42.016;23.098;2022-07-21T12:51:55;96914.75;;;40.84;25.01
7614;BME280;3848;42.016;23.098;2022-07-21T12:54:23;96924.16;;;40.87;25.60
7614;BME280;3848;42.016;23.098;2022-07-21T12:56:50;96902.72;;;41.20;25.10
7614;BME280;3848;42.016;23.098;2022-07-21T12:59:18;96910.44;;;41.48;24.98
7614;BME280;3848;42.016;23.098;2022-07-21T13:01:45;96903.25;;;41.41;24.32
7614;BME280;3848;42.016;23.098;2022-07-21T13:04:14;96905.53;;;41.38;24.68
7614;BME280;3848;42.016;23.098;2022-07-21T13:06:41;96898.56;;;41.37;24.31
7614;BME280;3848;42.016;23.098;2022-07-21T13:09:07;96896.13;;;41.35;23.26
7614;BME280;3848;42.016;23.098;2022-07-21T13:11:34;96873.59;;;41.18;24.27
7614;BME280;3848;42.016;23.098;2022-07-21T13:14:01;96893.69;;;41.27;23.96
7614;BME280;3848;42.016;23.098;2022-07-21T13:16:29;96889.38;;;41.20;23.48
7614;BME280;3848;42.016;23.098;2022-07-21T13:18:56;96876.56;;;41.48;24.56
7614;BME280;3848;42.016;23.098;2022-07-21T13:21:25;96878.69;;;41.64;23.84